createdAt,value
2023-05-23T00:00:17.834Z,7.88
2023-05-23T00:03:05.406Z,9.90
2023-05-23T00:05:36.221Z,9.23
2023-05-23T00:08:04.428Z,8.25
2023-05-23T00:10:32.636Z,7.68
2023-05-23T00:12:59.785Z,8.50
2023-05-23T00:15:27.507Z,10.38
2023-05-23T00:17:55.946Z,8.63
2023-05-23T00:20:25.544Z,8.95
2023-05-23T00:22:54.802Z,8.73
2023-05-23T00:25:23.976Z,8.68
2023-05-23T00:27:55.257Z,7.38
2023-05-23T00:30:24.830Z,12.10
2023-05-23T00:32:56.062Z,9.52
2023-05-23T00:35:26.046Z,10.55
2023-05-23T00:37:56.489Z,10.30
2023-05-23T00:40:25.802Z,11.95
2023-05-23T00:42:55.149Z,10.05
2023-05-23T00:45:24.962Z,9.60
2023-05-23T00:47:54.016Z,12.25
2023-05-23T00:50:31.094Z,11.00
2023-05-23T00:53:03.728Z,11.73
2023-05-23T00:55:33.575Z,12.38
2023-05-23T00:58:01.268Z,12.73
2023-05-23T01:00:29.121Z,9.70
2023-05-23T01:02:56.603Z,10.57
2023-05-23T01:05:25.135Z,10.98
2023-05-23T01:07:53.003Z,10.35
2023-05-23T01:10:27.184Z,7.70
2023-05-23T01:13:19.974Z,8.88
2023-05-23T01:16:01.112Z,10.20
2023-05-23T01:18:41.526Z,8.43
2023-05-23T01:21:18.048Z,8.18
2023-05-23T01:24:05.116Z,10.68
2023-05-23T01:26:35.893Z,9.07
2023-05-23T01:29:18.047Z,8.80
2023-05-23T01:31:49.568Z,11.73
2023-05-23T01:34:18.957Z,9.90
2023-05-23T01:36:49.756Z,8.93
2023-05-23T01:39:17.294Z,11.57
2023-05-23T01:41:44.682Z,10.65
2023-05-23T01:44:12.145Z,12.10
2023-05-23T01:46:40.588Z,9.80
2023-05-23T01:49:09.172Z,11.63
2023-05-23T01:51:37.372Z,10.02
2023-05-23T01:54:05.849Z,9.48
2023-05-23T01:56:34.583Z,11.30
2023-05-23T01:59:02.137Z,12.45
2023-05-23T02:01:30.361Z,9.32
2023-05-23T02:03:57.513Z,11.60
2023-05-23T02:06:25.327Z,10.10
2023-05-23T02:08:52.653Z,9.93
2023-05-23T02:11:20.049Z,10.82
2023-05-23T02:13:47.130Z,12.00
2023-05-23T02:16:14.533Z,10.50
2023-05-23T02:18:41.592Z,11.13
2023-05-23T02:21:08.896Z,13.30
2023-05-23T02:23:36.028Z,11.57
2023-05-23T02:26:03.475Z,10.55
2023-05-23T02:28:30.730Z,12.00
2023-05-23T02:30:58.450Z,9.70
2023-05-23T02:33:25.811Z,10.73
2023-05-23T02:35:55.393Z,7.75
2023-05-23T02:38:22.351Z,12.77
2023-05-23T02:40:51.862Z,9.65
2023-05-23T02:43:19.431Z,9.52
2023-05-23T02:45:46.918Z,10.00
2023-05-23T02:48:14.097Z,9.80
2023-05-23T02:50:42.181Z,9.55
2023-05-23T02:53:10.005Z,10.98
2023-05-23T02:55:39.060Z,10.88
2023-05-23T02:58:07.095Z,8.20
2023-05-23T03:00:34.892Z,9.07
2023-05-23T03:03:02.781Z,10.88
2023-05-23T03:05:30.830Z,9.20
2023-05-23T03:07:58.475Z,10.35
2023-05-23T03:10:26.232Z,9.68
2023-05-23T03:12:53.384Z,11.43
2023-05-23T03:15:21.181Z,9.40
2023-05-23T03:17:48.924Z,11.15
2023-05-23T03:20:16.779Z,8.57
2023-05-23T03:22:45.715Z,12.35
2023-05-23T03:25:15.016Z,11.98
2023-05-23T03:27:42.163Z,8.07
2023-05-23T03:30:10.805Z,10.32
2023-05-23T03:32:37.940Z,9.30
2023-05-23T03:35:05.835Z,8.93
2023-05-23T03:37:33.071Z,12.18
2023-05-23T03:40:00.551Z,14.25
2023-05-23T03:42:28.771Z,9.45
2023-05-23T03:44:56.899Z,7.82
2023-05-23T03:47:27.241Z,10.23
2023-05-23T03:49:54.622Z,10.63
2023-05-23T03:52:21.724Z,10.13
2023-05-23T03:54:49.436Z,9.52
2023-05-23T03:57:16.543Z,9.35
2023-05-23T03:59:44.303Z,8.80
2023-05-23T04:02:11.552Z,8.43
2023-05-23T04:04:39.830Z,8.73
2023-05-23T04:07:07.272Z,8.68
2023-05-23T04:09:34.619Z,8.30
2023-05-23T04:12:01.768Z,7.85
2023-05-23T04:14:29.523Z,8.98
2023-05-23T04:16:56.670Z,9.75
2023-05-23T04:19:24.320Z,7.97
2023-05-23T04:21:51.423Z,9.63
2023-05-23T04:24:18.807Z,10.48
2023-05-23T04:26:45.932Z,10.48
2023-05-23T04:29:13.382Z,8.27
2023-05-23T04:31:40.383Z,10.05
2023-05-23T04:34:08.251Z,9.40
2023-05-23T04:36:38.160Z,10.23
2023-05-23T04:39:06.357Z,11.32
2023-05-23T04:41:33.921Z,8.35
2023-05-23T04:44:01.250Z,9.20
2023-05-23T04:46:28.469Z,8.88
2023-05-23T04:48:56.546Z,11.95
2023-05-23T04:51:23.883Z,9.50
2023-05-23T04:53:52.591Z,8.75
2023-05-23T04:56:22.823Z,8.13
2023-05-23T04:58:50.607Z,9.15
2023-05-23T05:01:17.643Z,7.88
2023-05-23T05:03:45.485Z,7.57
2023-05-23T05:06:12.484Z,7.70
2023-05-23T05:08:40.945Z,6.18
2023-05-23T05:11:09.510Z,5.97
2023-05-23T05:13:36.996Z,4.80
2023-05-23T05:16:04.181Z,3.35
2023-05-23T05:18:31.618Z,5.30
2023-05-23T05:20:58.849Z,5.32
2023-05-23T05:23:30.260Z,4.93
2023-05-23T05:25:57.738Z,5.90
2023-05-23T05:28:25.235Z,4.68
2023-05-23T05:30:55.251Z,3.72
2023-05-23T05:33:28.499Z,4.47
2023-05-23T05:35:55.928Z,4.38
2023-05-23T05:38:23.839Z,5.55
2023-05-23T05:40:51.205Z,5.50
2023-05-23T05:43:18.871Z,5.65
2023-05-23T05:45:46.297Z,4.15
2023-05-23T05:48:14.165Z,6.03
2023-05-23T05:50:45.470Z,5.80
2023-05-23T05:53:14.275Z,4.73
2023-05-23T05:55:41.315Z,6.95
2023-05-23T05:58:08.620Z,4.30
2023-05-23T06:00:42.475Z,7.90
2023-05-23T06:03:10.726Z,6.85
2023-05-23T06:05:39.494Z,5.25
2023-05-23T06:08:07.205Z,7.32
2023-05-23T06:10:34.645Z,4.25
2023-05-23T06:13:02.310Z,3.83
2023-05-23T06:15:56.804Z,14.63
2023-05-23T06:18:24.438Z,7.25
2023-05-23T06:20:51.443Z,7.55
2023-05-23T06:23:18.876Z,6.07
2023-05-23T06:25:46.186Z,5.13
2023-05-23T06:28:13.722Z,7.13
2023-05-23T06:30:41.139Z,4.72
2023-05-23T06:33:09.015Z,4.72
2023-05-23T06:35:36.109Z,4.90
2023-05-23T06:38:03.602Z,7.32
2023-05-23T06:40:31.101Z,3.28
2023-05-23T06:42:58.090Z,5.97
2023-05-23T06:45:25.909Z,6.18
2023-05-23T06:47:53.040Z,4.47
2023-05-23T06:50:20.683Z,3.55
2023-05-23T06:52:47.864Z,4.22
2023-05-23T06:55:18.426Z,5.85
2023-05-23T06:57:46.273Z,3.42
2023-05-23T07:00:14.365Z,4.55
2023-05-23T07:02:41.678Z,5.13
2023-05-23T07:05:09.667Z,5.28
2023-05-23T07:07:36.759Z,8.23
2023-05-23T07:10:04.642Z,2.95
2023-05-23T07:12:34.038Z,6.18
2023-05-23T07:15:02.670Z,3.97
2023-05-23T07:17:33.006Z,4.15
2023-05-23T07:20:00.493Z,5.32
2023-05-23T07:22:27.793Z,2.65
2023-05-23T07:24:55.133Z,3.83
2023-05-23T07:27:22.410Z,3.88
2023-05-23T07:29:51.234Z,3.33
2023-05-23T07:32:18.608Z,2.65
2023-05-23T07:34:46.374Z,5.10
2023-05-23T07:37:13.375Z,2.45
2023-05-23T07:39:43.497Z,4.13
2023-05-23T07:42:10.847Z,3.35
2023-05-23T07:44:38.433Z,3.33
2023-05-23T07:47:06.079Z,4.93
2023-05-23T07:49:34.731Z,2.47
2023-05-23T07:52:02.492Z,3.58
2023-05-23T07:54:30.566Z,3.70
2023-05-23T07:56:57.744Z,2.90
2023-05-23T07:59:25.516Z,3.65
2023-05-23T08:01:52.914Z,2.47
2023-05-23T08:04:20.737Z,2.80
2023-05-23T08:07:04.053Z,2.63
2023-05-23T08:09:33.274Z,2.45
2023-05-23T08:12:00.917Z,3.30
2023-05-23T08:14:42.708Z,3.55
2023-05-23T08:17:17.519Z,3.92
2023-05-23T08:19:45.455Z,3.13
2023-05-23T08:22:13.150Z,2.53
2023-05-23T08:24:40.668Z,3.70
2023-05-23T08:27:10.705Z,5.32
2023-05-23T08:29:38.654Z,2.63
2023-05-23T08:32:07.442Z,3.15
2023-05-23T08:34:35.399Z,3.20
2023-05-23T08:37:02.882Z,2.17
2023-05-23T08:39:30.511Z,2.33
2023-05-23T08:41:57.656Z,3.42
2023-05-23T08:44:25.076Z,2.95
2023-05-23T08:46:54.000Z,2.13
2023-05-23T08:49:23.153Z,8.05
2023-05-23T08:51:56.885Z,3.13
2023-05-23T08:54:24.981Z,1.73
2023-05-23T08:56:52.529Z,3.95
2023-05-23T08:59:21.223Z,2.17
2023-05-23T09:01:50.753Z,1.73
2023-05-23T09:04:18.320Z,2.53
2023-05-23T09:06:45.753Z,2.08
2023-05-23T09:09:13.708Z,5.32
2023-05-23T09:11:46.202Z,2.78
2023-05-23T09:14:14.797Z,2.13
2023-05-23T09:16:49.080Z,3.03
2023-05-23T09:19:18.460Z,2.97
2023-05-23T09:21:46.065Z,2.05
2023-05-23T09:24:13.852Z,3.42
2023-05-23T09:26:41.083Z,2.10
2023-05-23T09:29:08.498Z,5.80
2023-05-23T09:31:35.695Z,2.78
2023-05-23T09:34:05.106Z,2.25
2023-05-23T09:36:36.610Z,1.52
2023-05-23T09:39:08.325Z,4.97
2023-05-23T09:41:36.017Z,6.75
2023-05-23T09:44:09.582Z,2.78
2023-05-23T09:46:41.238Z,2.05
2023-05-23T09:49:18.784Z,2.17
2023-05-23T09:51:58.678Z,1.83
2023-05-23T09:54:26.321Z,1.80
2023-05-23T09:56:57.408Z,5.40
2023-05-23T09:59:31.793Z,2.63
2023-05-23T10:02:02.492Z,2.42
2023-05-23T10:04:32.909Z,5.57
2023-05-23T10:07:07.137Z,2.35
2023-05-23T10:09:38.355Z,2.85
2023-05-23T10:12:34.071Z,1.77
2023-05-23T10:15:07.633Z,1.48
2023-05-23T10:17:55.957Z,2.33
2023-05-23T10:20:26.656Z,1.85
2023-05-23T10:22:55.052Z,3.33
2023-05-23T10:25:22.893Z,3.40
2023-05-23T10:27:53.656Z,3.63
2023-05-23T10:30:21.840Z,2.43
2023-05-23T10:32:49.992Z,1.92
2023-05-23T10:35:44.532Z,3.13
2023-05-23T10:38:54.343Z,2.05
2023-05-23T10:41:31.309Z,3.35
2023-05-23T10:44:29.509Z,3.88
2023-05-23T10:47:02.303Z,2.38
2023-05-23T10:49:42.403Z,3.70
2023-05-23T10:52:39.762Z,3.05
2023-05-23T10:55:20.148Z,1.65
2023-05-23T10:58:23.290Z,2.05
2023-05-23T11:00:55.106Z,2.35
2023-05-23T11:03:34.140Z,1.40
2023-05-23T11:06:04.753Z,1.73
2023-05-23T11:11:12.518Z,4.28
2023-05-23T11:13:56.002Z,2.40
2023-05-23T11:16:40.978Z,1.55
2023-05-23T11:19:21.084Z,2.63
2023-05-23T11:21:53.683Z,3.33
2023-05-23T11:24:21.742Z,4.38
2023-05-23T11:27:00.819Z,1.85
2023-05-23T11:29:31.947Z,2.33
2023-05-23T11:31:59.377Z,2.20
2023-05-23T11:34:27.276Z,3.13
2023-05-23T11:36:57.638Z,5.32
2023-05-23T11:39:25.011Z,1.65
2023-05-23T11:42:04.595Z,2.67
2023-05-23T11:44:32.290Z,2.58
2023-05-23T11:47:04.781Z,7.55
2023-05-23T11:49:35.620Z,2.28
2023-05-23T11:52:03.181Z,2.00
2023-05-23T11:54:31.001Z,3.70
2023-05-23T11:56:58.602Z,4.45
2023-05-23T11:59:27.205Z,2.78
2023-05-23T12:01:55.128Z,2.70
2023-05-23T12:04:22.803Z,6.43
2023-05-23T12:06:51.666Z,3.95
2023-05-23T12:09:19.041Z,1.92
2023-05-23T12:11:46.346Z,2.42
2023-05-23T12:14:18.039Z,1.63
2023-05-23T12:16:46.972Z,2.83
2023-05-23T12:19:16.643Z,1.67
2023-05-23T12:21:46.232Z,1.83
2023-05-23T12:24:22.297Z,5.82
2023-05-23T12:26:55.218Z,8.20
2023-05-23T12:29:34.824Z,2.35
2023-05-23T12:32:04.244Z,3.67
2023-05-23T12:34:31.899Z,2.78
2023-05-23T12:37:18.134Z,2.53
2023-05-23T12:39:46.753Z,3.85
2023-05-23T12:42:13.917Z,9.35
2023-05-23T12:44:43.705Z,2.17
2023-05-23T12:47:10.934Z,3.20
2023-05-23T12:49:38.523Z,4.78
2023-05-23T12:52:06.124Z,6.53
2023-05-23T12:54:33.821Z,3.33
2023-05-23T12:57:01.004Z,54.05
2023-05-23T12:59:28.400Z,4.10
2023-05-23T13:01:55.627Z,2.65
2023-05-23T13:04:23.261Z,2.75
2023-05-23T13:06:50.463Z,3.42
2023-05-23T13:09:18.000Z,2.08
2023-05-23T13:11:46.825Z,4.28
2023-05-23T13:14:14.147Z,2.83
2023-05-23T13:16:42.157Z,2.78
2023-05-23T13:19:09.743Z,6.10
2023-05-23T13:21:37.221Z,2.17
2023-05-23T13:24:04.440Z,2.40
2023-05-23T13:26:31.881Z,2.97
2023-05-23T13:28:59.165Z,3.22
2023-05-23T13:31:27.367Z,3.13
2023-05-23T13:33:54.444Z,1.95
2023-05-23T13:36:22.028Z,4.85
2023-05-23T13:38:49.111Z,2.53
2023-05-23T13:41:17.296Z,2.65
2023-05-23T13:43:44.568Z,2.45
2023-05-23T13:46:14.037Z,2.28
2023-05-23T13:48:41.299Z,2.30
2023-05-23T13:51:08.738Z,1.48
2023-05-23T13:53:35.841Z,1.70
2023-05-23T13:56:03.449Z,2.42
2023-05-23T13:58:32.653Z,2.88
2023-05-23T14:01:00.629Z,2.15
2023-05-23T14:03:27.780Z,4.28
2023-05-23T14:05:55.342Z,3.45
2023-05-23T14:08:22.507Z,6.13
2023-05-23T14:10:49.908Z,6.13
2023-05-23T14:13:17.316Z,4.15
2023-05-23T14:15:45.027Z,4.25
2023-05-23T14:18:12.393Z,4.38
2023-05-23T14:20:39.837Z,3.70
2023-05-23T14:23:06.935Z,3.75
2023-05-23T14:25:34.490Z,3.08
2023-05-23T14:28:01.744Z,2.78
2023-05-23T14:30:29.188Z,3.95
2023-05-23T14:32:56.448Z,6.35
2023-05-23T14:35:25.771Z,4.82
2023-05-23T14:37:52.892Z,5.25
2023-05-23T14:40:20.179Z,2.53
2023-05-23T14:42:47.269Z,3.17
2023-05-23T14:45:17.848Z,4.18
2023-05-23T14:47:45.849Z,3.63
2023-05-23T14:50:13.453Z,3.95
2023-05-23T14:52:41.044Z,4.07
2023-05-23T14:55:09.134Z,3.05
2023-05-23T14:57:36.297Z,4.22
2023-05-23T15:00:05.800Z,2.53
2023-05-23T15:02:33.307Z,4.43
2023-05-23T15:05:01.328Z,5.05
2023-05-23T15:07:28.557Z,3.13
2023-05-23T15:09:56.212Z,4.50
2023-05-23T15:12:23.310Z,4.03
2023-05-23T15:14:51.034Z,2.53
2023-05-23T15:17:20.471Z,6.72
2023-05-23T15:19:48.465Z,3.65
2023-05-23T15:22:30.350Z,4.38
2023-05-23T15:25:04.692Z,4.50
2023-05-23T15:27:31.708Z,6.85
2023-05-23T15:29:59.395Z,5.22
2023-05-23T15:32:26.529Z,4.15
2023-05-23T15:34:54.238Z,9.60
2023-05-23T15:37:21.571Z,5.43
2023-05-23T15:39:49.416Z,4.90
2023-05-23T15:42:16.651Z,6.72
2023-05-23T15:44:44.512Z,3.83
2023-05-23T15:47:11.768Z,4.10
2023-05-23T15:49:39.521Z,4.65
2023-05-23T15:52:06.618Z,4.43
2023-05-23T15:54:34.362Z,5.38
2023-05-23T15:57:01.372Z,5.53
2023-05-23T15:59:28.911Z,6.82
2023-05-23T16:01:56.273Z,2.83
2023-05-23T16:04:24.291Z,8.07
2023-05-23T16:06:51.407Z,6.00
2023-05-23T16:09:19.089Z,4.97
2023-05-23T16:11:46.175Z,4.72
2023-05-23T16:14:14.229Z,5.18
2023-05-23T16:16:41.293Z,4.18
2023-05-23T16:19:09.890Z,4.57
2023-05-23T16:21:37.217Z,3.40
2023-05-23T16:24:05.254Z,5.18
2023-05-23T16:26:34.831Z,3.33
2023-05-23T16:29:02.732Z,5.13
2023-05-23T16:31:30.365Z,3.75
2023-05-23T16:33:58.717Z,3.05
2023-05-23T16:36:26.042Z,2.95
2023-05-23T16:38:55.627Z,5.97
2023-05-23T16:41:23.187Z,4.18
2023-05-23T16:43:51.803Z,3.47
2023-05-23T16:46:20.601Z,4.07
2023-05-23T16:48:48.992Z,4.40
2023-05-23T16:51:16.476Z,4.07
2023-05-23T16:53:44.422Z,6.07
2023-05-23T16:56:11.705Z,5.25
2023-05-23T16:58:39.808Z,3.85
2023-05-23T17:01:08.688Z,4.15
2023-05-23T17:03:36.990Z,5.65
2023-05-23T17:06:04.360Z,6.57
2023-05-23T17:08:32.571Z,4.97
2023-05-23T17:10:59.859Z,5.45
2023-05-23T17:13:28.172Z,4.35
2023-05-23T17:15:55.595Z,5.13
2023-05-23T17:18:23.391Z,3.63
2023-05-23T17:20:50.711Z,3.45
2023-05-23T17:23:19.236Z,4.30
2023-05-23T17:25:46.610Z,4.20
2023-05-23T17:28:14.549Z,4.68
2023-05-23T17:30:41.896Z,6.03
2023-05-23T17:33:11.057Z,6.00
2023-05-23T17:35:38.383Z,4.93
2023-05-23T17:38:06.367Z,5.70
2023-05-23T17:40:34.515Z,9.20
2023-05-23T17:43:03.612Z,3.92
2023-05-23T17:45:31.569Z,4.88
2023-05-23T17:48:03.562Z,5.13
2023-05-23T17:50:31.080Z,4.95
2023-05-23T17:52:59.190Z,5.28
2023-05-23T17:55:26.688Z,7.00
2023-05-23T17:57:55.012Z,7.07
2023-05-23T18:00:22.416Z,11.82
2023-05-23T18:02:51.197Z,4.25
2023-05-23T18:05:20.874Z,4.60
2023-05-23T18:07:50.455Z,9.93
2023-05-23T18:10:18.220Z,4.10
2023-05-23T18:12:46.597Z,4.82
2023-05-23T18:15:14.171Z,3.88
2023-05-23T18:17:42.501Z,5.97
2023-05-23T18:20:10.319Z,5.25
2023-05-23T18:22:38.104Z,6.07
2023-05-23T18:25:06.277Z,4.72
2023-05-23T18:27:35.177Z,8.18
2023-05-23T18:30:02.710Z,6.68
2023-05-23T18:32:31.570Z,4.72
2023-05-23T18:34:58.641Z,4.55
2023-05-23T18:37:26.531Z,4.75
2023-05-23T18:39:58.089Z,5.57
2023-05-23T18:42:26.149Z,4.97
2023-05-23T18:44:53.858Z,5.15
2023-05-23T18:47:21.576Z,4.40
2023-05-23T18:49:49.912Z,5.63
2023-05-23T18:52:17.808Z,6.55
2023-05-23T18:54:45.152Z,6.70
2023-05-23T18:57:12.874Z,4.47
2023-05-23T18:59:40.136Z,5.35
2023-05-23T19:02:07.512Z,4.28
2023-05-23T19:04:34.760Z,4.53
2023-05-23T19:07:02.559Z,6.82
2023-05-23T19:09:29.801Z,9.90
2023-05-23T19:11:57.851Z,6.97
2023-05-23T19:14:25.751Z,7.78
2023-05-23T19:16:55.176Z,8.95
2023-05-23T19:19:22.806Z,7.03
2023-05-23T19:21:52.250Z,7.30
2023-05-23T19:24:19.475Z,8.32
2023-05-23T19:26:47.468Z,7.93
2023-05-23T19:29:14.788Z,7.40
2023-05-23T19:31:42.554Z,6.55
2023-05-23T19:34:09.994Z,8.13
2023-05-23T19:36:38.069Z,6.18
2023-05-23T19:39:05.110Z,9.80
2023-05-23T19:41:33.254Z,5.95
2023-05-23T19:44:01.390Z,6.85
2023-05-23T19:46:29.454Z,7.88
2023-05-23T19:48:59.706Z,8.85
2023-05-23T19:51:29.237Z,8.25
2023-05-23T19:53:56.603Z,8.52
2023-05-23T19:56:25.929Z,11.38
2023-05-23T19:58:53.235Z,7.72
2023-05-23T20:01:22.029Z,6.18
2023-05-23T20:03:49.612Z,7.80
2023-05-23T20:06:17.025Z,6.60
2023-05-23T20:08:44.366Z,6.97
2023-05-23T20:11:12.686Z,6.20
2023-05-23T20:13:40.044Z,9.13
2023-05-23T20:16:08.448Z,7.28
2023-05-23T20:18:36.249Z,8.80
2023-05-23T20:21:05.311Z,9.73
2023-05-23T20:23:32.588Z,7.80
2023-05-23T20:26:01.194Z,7.45
2023-05-23T20:28:28.259Z,7.05
2023-05-23T20:30:55.837Z,5.85
2023-05-23T20:33:23.060Z,8.80
2023-05-23T20:35:50.728Z,8.13
2023-05-23T20:38:20.726Z,6.38
2023-05-23T20:40:50.869Z,7.60
2023-05-23T20:43:22.397Z,8.00
2023-05-23T20:45:50.489Z,10.98
2023-05-23T20:48:17.623Z,9.80
2023-05-23T20:50:45.622Z,7.93
2023-05-23T20:53:12.731Z,7.05
2023-05-23T20:55:41.017Z,8.23
2023-05-23T20:58:08.835Z,9.70
2023-05-23T21:00:36.386Z,6.95
2023-05-23T21:03:03.710Z,8.75
2023-05-23T21:05:31.114Z,8.95
2023-05-23T21:07:58.221Z,6.65
2023-05-23T21:10:25.560Z,10.98
2023-05-23T21:12:52.930Z,7.35
2023-05-23T21:15:20.629Z,9.02
2023-05-23T21:17:47.802Z,7.18
2023-05-23T21:20:16.293Z,9.05
2023-05-23T21:22:43.411Z,8.20
2023-05-23T21:25:11.094Z,8.68
2023-05-23T21:27:38.234Z,8.35
2023-05-23T21:30:06.863Z,9.18
2023-05-23T21:32:34.113Z,7.35
2023-05-23T21:35:01.803Z,9.43
2023-05-23T21:37:28.833Z,13.50
2023-05-23T21:39:56.229Z,8.68
2023-05-23T21:42:24.768Z,11.55
2023-05-23T21:44:52.833Z,7.97
2023-05-23T21:47:21.320Z,10.90
2023-05-23T21:49:48.708Z,9.35
2023-05-23T21:52:15.919Z,10.55
2023-05-23T21:54:43.622Z,8.88
2023-05-23T21:57:10.850Z,13.77
2023-05-23T21:59:38.646Z,11.13
2023-05-23T22:02:05.896Z,7.68
2023-05-23T22:04:33.604Z,7.93
2023-05-23T22:07:01.201Z,8.68
2023-05-23T22:09:29.450Z,9.98
2023-05-23T22:11:56.745Z,10.25
2023-05-23T22:14:24.425Z,9.80
2023-05-23T22:16:52.098Z,12.77
2023-05-23T22:19:20.255Z,9.43
2023-05-23T22:21:47.873Z,13.70
2023-05-23T22:24:15.245Z,11.25
2023-05-23T22:26:42.356Z,12.70
2023-05-23T22:29:09.799Z,11.98
2023-05-23T22:31:36.812Z,16.92
2023-05-23T22:34:04.578Z,13.63
2023-05-23T22:36:33.475Z,13.98
2023-05-23T22:39:02.438Z,13.95
2023-05-23T22:41:29.536Z,11.32
2023-05-23T22:43:57.399Z,13.57
2023-05-23T22:46:24.626Z,12.85
2023-05-23T22:48:52.705Z,12.45
2023-05-23T22:51:19.913Z,12.98
2023-05-23T22:53:47.783Z,13.07
2023-05-23T22:56:15.623Z,13.98
2023-05-23T22:58:43.401Z,13.50
2023-05-23T23:01:10.756Z,11.32
2023-05-23T23:03:38.550Z,12.90
2023-05-23T23:06:06.467Z,14.40
2023-05-23T23:08:34.511Z,18.30
2023-05-23T23:11:01.847Z,12.00
2023-05-23T23:13:29.760Z,11.80
2023-05-23T23:15:58.759Z,14.02
2023-05-23T23:18:27.086Z,13.88
2023-05-23T23:20:54.509Z,12.30
2023-05-23T23:23:21.941Z,13.02
2023-05-23T23:25:50.259Z,15.30
2023-05-23T23:28:17.780Z,12.40
2023-05-23T23:30:44.903Z,11.60
2023-05-23T23:33:13.200Z,11.65
2023-05-23T23:35:40.433Z,14.52
2023-05-23T23:38:07.697Z,15.70
2023-05-23T23:40:34.816Z,15.15
2023-05-23T23:43:02.166Z,12.20
2023-05-23T23:45:29.218Z,13.63
2023-05-23T23:47:56.660Z,12.18
2023-05-23T23:50:23.772Z,14.30
2023-05-23T23:52:51.466Z,13.07
2023-05-23T23:55:18.626Z,15.68
2023-05-23T23:57:46.548Z,14.35
